sensor_id;sensor_type;location;lat;lon;timestamp;P1;durP1;ratioP1;P2;durP2;ratioP2
16119;SDS011;12670;53.502;10.252;2022-12-24T00:02:06;18.60;;;9.33;;
16119;SDS011;12670;53.502;10.252;2022-12-24T00:05:09;18.83;;;9.23;;
16119;SDS011;12670;53.502;10.252;2022-12-24T00:08:12;20.00;;;10.10;;
16119;SDS011;12670;53.502;10.252;2022-12-24T00:11:14;19.90;;;9.80;;
16119;SDS011;12670;53.502;10.252;2022-12-24T00:14:17;24.33;;;9.70;;
16119;SDS011;12670;53.502;10.252;2022-12-24T00:17:21;18.80;;;10.07;;
16119;SDS011;12670;53.502;10.252;2022-12-24T00:20:24;20.57;;;9.87;;
16119;SDS011;12670;53.502;10.252;2022-12-24T00:23:26;19.13;;;9.63;;
16119;SDS011;12670;53.502;10.252;2022-12-24T00:26:29;20.63;;;9.50;;
16119;SDS011;12670;53.502;10.252;2022-12-24T00:29:32;20.37;;;10.03;;
16119;SDS011;12670;53.502;10.252;2022-12-24T00:32:36;19.83;;;10.03;;
16119;SDS011;12670;53.502;10.252;2022-12-24T00:35:39;20.17;;;9.50;;
16119;SDS011;12670;53.502;10.252;2022-12-24T00:38:42;19.80;;;9.77;;
16119;SDS011;12670;53.502;10.252;2022-12-24T00:41:45;19.93;;;9.97;;
16119;SDS011;12670;53.502;10.252;2022-12-24T00:44:48;20.37;;;10.37;;
16119;SDS011;12670;53.502;10.252;2022-12-24T00:47:52;19.00;;;9.37;;
16119;SDS011;12670;53.502;10.252;2022-12-24T00:50:54;20.80;;;9.40;;
16119;SDS011;12670;53.502;10.252;2022-12-24T00:53:57;20.63;;;10.07;;
16119;SDS011;12670;53.502;10.252;2022-12-24T00:57:00;22.50;;;10.40;;
16119;SDS011;12670;53.502;10.252;2022-12-24T01:00:03;18.63;;;9.50;;
16119;SDS011;12670;53.502;10.252;2022-12-24T01:03:07;19.27;;;10.00;;
16119;SDS011;12670;53.502;10.252;2022-12-24T01:06:11;22.80;;;10.90;;
16119;SDS011;12670;53.502;10.252;2022-12-24T01:09:15;19.57;;;10.03;;
16119;SDS011;12670;53.502;10.252;2022-12-24T01:12:18;22.47;;;10.40;;
16119;SDS011;12670;53.502;10.252;2022-12-24T01:15:20;23.77;;;10.50;;
16119;SDS011;12670;53.502;10.252;2022-12-24T01:18:24;23.00;;;11.17;;
16119;SDS011;12670;53.502;10.252;2022-12-24T01:21:27;24.13;;;11.07;;
16119;SDS011;12670;53.502;10.252;2022-12-24T01:24:29;27.83;;;11.10;;
16119;SDS011;12670;53.502;10.252;2022-12-24T01:27:32;22.57;;;11.23;;
16119;SDS011;12670;53.502;10.252;2022-12-24T01:30:35;23.77;;;10.87;;
16119;SDS011;12670;53.502;10.252;2022-12-24T01:33:38;24.47;;;11.53;;
16119;SDS011;12670;53.502;10.252;2022-12-24T01:36:41;23.27;;;11.10;;
16119;SDS011;12670;53.502;10.252;2022-12-24T01:39:44;27.13;;;11.70;;
16119;SDS011;12670;53.502;10.252;2022-12-24T01:42:47;22.80;;;11.10;;
16119;SDS011;12670;53.502;10.252;2022-12-24T01:46:10;24.17;;;11.70;;
16119;SDS011;12670;53.502;10.252;2022-12-24T01:49:19;23.53;;;11.37;;
16119;SDS011;12670;53.502;10.252;2022-12-24T01:52:23;27.87;;;12.13;;
16119;SDS011;12670;53.502;10.252;2022-12-24T01:55:29;28.10;;;11.93;;
16119;SDS011;12670;53.502;10.252;2022-12-24T01:58:32;27.70;;;12.37;;
16119;SDS011;12670;53.502;10.252;2022-12-24T02:01:37;22.57;;;11.60;;
16119;SDS011;12670;53.502;10.252;2022-12-24T02:04:43;25.10;;;11.87;;
16119;SDS011;12670;53.502;10.252;2022-12-24T02:07:52;26.10;;;12.27;;
16119;SDS011;12670;53.502;10.252;2022-12-24T02:10:54;31.30;;;13.20;;
16119;SDS011;12670;53.502;10.252;2022-12-24T02:13:58;28.03;;;12.90;;
16119;SDS011;12670;53.502;10.252;2022-12-24T02:17:05;27.47;;;12.47;;
16119;SDS011;12670;53.502;10.252;2022-12-24T02:24:07;27.70;;;12.17;;
16119;SDS011;12670;53.502;10.252;2022-12-24T02:27:28;25.30;;;11.23;;
16119;SDS011;12670;53.502;10.252;2022-12-24T02:30:40;24.57;;;11.70;;
16119;SDS011;12670;53.502;10.252;2022-12-24T02:33:47;24.10;;;11.77;;
16119;SDS011;12670;53.502;10.252;2022-12-24T02:36:57;20.10;;;9.87;;
16119;SDS011;12670;53.502;10.252;2022-12-24T02:40:05;22.37;;;10.63;;
16119;SDS011;12670;53.502;10.252;2022-12-24T02:43:19;23.83;;;10.63;;
16119;SDS011;12670;53.502;10.252;2022-12-24T02:46:27;27.27;;;11.23;;
16119;SDS011;12670;53.502;10.252;2022-12-24T02:49:31;24.00;;;10.17;;
16119;SDS011;12670;53.502;10.252;2022-12-24T02:52:34;23.43;;;10.40;;
16119;SDS011;12670;53.502;10.252;2022-12-24T02:55:46;25.57;;;9.73;;
16119;SDS011;12670;53.502;10.252;2022-12-24T03:02:35;22.63;;;9.70;;
16119;SDS011;12670;53.502;10.252;2022-12-24T03:05:52;20.47;;;9.07;;
16119;SDS011;12670;53.502;10.252;2022-12-24T03:09:05;21.03;;;9.50;;
16119;SDS011;12670;53.502;10.252;2022-12-24T03:12:15;18.47;;;8.80;;
16119;SDS011;12670;53.502;10.252;2022-12-24T03:15:23;19.60;;;9.40;;
16119;SDS011;12670;53.502;10.252;2022-12-24T03:18:28;21.40;;;9.43;;
16119;SDS011;12670;53.502;10.252;2022-12-24T03:21:32;19.40;;;9.07;;
16119;SDS011;12670;53.502;10.252;2022-12-24T03:24:37;16.20;;;7.87;;
16119;SDS011;12670;53.502;10.252;2022-12-24T03:27:40;17.63;;;8.57;;
16119;SDS011;12670;53.502;10.252;2022-12-24T03:30:44;17.40;;;8.53;;
16119;SDS011;12670;53.502;10.252;2022-12-24T03:33:50;18.07;;;8.33;;
16119;SDS011;12670;53.502;10.252;2022-12-24T03:36:53;17.17;;;8.27;;
16119;SDS011;12670;53.502;10.252;2022-12-24T03:39:55;18.43;;;8.10;;
16119;SDS011;12670;53.502;10.252;2022-12-24T03:42:58;14.63;;;7.70;;
16119;SDS011;12670;53.502;10.252;2022-12-24T03:46:04;19.37;;;8.73;;
16119;SDS011;12670;53.502;10.252;2022-12-24T03:49:09;16.77;;;8.17;;
16119;SDS011;12670;53.502;10.252;2022-12-24T03:52:12;19.67;;;8.13;;
16119;SDS011;12670;53.502;10.252;2022-12-24T03:55:15;15.67;;;7.20;;
16119;SDS011;12670;53.502;10.252;2022-12-24T03:58:18;16.60;;;7.90;;
16119;SDS011;12670;53.502;10.252;2022-12-24T04:01:21;15.07;;;7.93;;
16119;SDS011;12670;53.502;10.252;2022-12-24T04:04:25;14.93;;;7.50;;
16119;SDS011;12670;53.502;10.252;2022-12-24T04:07:28;18.10;;;8.30;;
16119;SDS011;12670;53.502;10.252;2022-12-24T04:10:30;15.70;;;7.50;;
16119;SDS011;12670;53.502;10.252;2022-12-24T04:13:33;14.97;;;7.03;;
16119;SDS011;12670;53.502;10.252;2022-12-24T04:16:36;17.70;;;7.67;;
16119;SDS011;12670;53.502;10.252;2022-12-24T04:19:40;15.13;;;8.00;;
16119;SDS011;12670;53.502;10.252;2022-12-24T04:22:42;15.30;;;7.57;;
16119;SDS011;12670;53.502;10.252;2022-12-24T04:25:45;14.13;;;7.23;;
16119;SDS011;12670;53.502;10.252;2022-12-24T04:28:48;15.67;;;7.47;;
16119;SDS011;12670;53.502;10.252;2022-12-24T04:31:51;16.00;;;8.10;;
16119;SDS011;12670;53.502;10.252;2022-12-24T04:34:55;15.93;;;7.03;;
16119;SDS011;12670;53.502;10.252;2022-12-24T04:37:57;15.77;;;7.53;;
16119;SDS011;12670;53.502;10.252;2022-12-24T04:41:01;15.53;;;7.60;;
16119;SDS011;12670;53.502;10.252;2022-12-24T04:44:05;17.57;;;7.80;;
16119;SDS011;12670;53.502;10.252;2022-12-24T04:47:08;16.70;;;8.33;;
16119;SDS011;12670;53.502;10.252;2022-12-24T04:50:12;16.20;;;7.97;;
16119;SDS011;12670;53.502;10.252;2022-12-24T04:53:15;17.40;;;7.93;;
16119;SDS011;12670;53.502;10.252;2022-12-24T04:56:18;17.70;;;8.13;;
16119;SDS011;12670;53.502;10.252;2022-12-24T04:59:22;20.13;;;8.03;;
16119;SDS011;12670;53.502;10.252;2022-12-24T05:02:24;15.90;;;8.13;;
16119;SDS011;12670;53.502;10.252;2022-12-24T05:05:28;15.17;;;7.67;;
16119;SDS011;12670;53.502;10.252;2022-12-24T05:08:31;17.23;;;7.77;;
16119;SDS011;12670;53.502;10.252;2022-12-24T05:11:34;17.70;;;8.20;;
16119;SDS011;12670;53.502;10.252;2022-12-24T05:14:37;13.70;;;7.63;;
16119;SDS011;12670;53.502;10.252;2022-12-24T05:17:40;17.13;;;8.07;;
16119;SDS011;12670;53.502;10.252;2022-12-24T05:20:44;14.53;;;7.73;;
16119;SDS011;12670;53.502;10.252;2022-12-24T05:23:47;13.70;;;7.23;;
16119;SDS011;12670;53.502;10.252;2022-12-24T05:27:08;17.43;;;7.80;;
16119;SDS011;12670;53.502;10.252;2022-12-24T05:30:10;15.90;;;7.80;;
16119;SDS011;12670;53.502;10.252;2022-12-24T05:33:13;19.73;;;7.90;;
16119;SDS011;12670;53.502;10.252;2022-12-24T05:36:17;15.70;;;7.53;;
16119;SDS011;12670;53.502;10.252;2022-12-24T05:39:20;15.80;;;7.97;;
16119;SDS011;12670;53.502;10.252;2022-12-24T05:42:22;17.23;;;8.17;;
16119;SDS011;12670;53.502;10.252;2022-12-24T05:45:25;13.87;;;6.67;;
16119;SDS011;12670;53.502;10.252;2022-12-24T05:48:27;15.47;;;7.40;;
16119;SDS011;12670;53.502;10.252;2022-12-24T05:51:32;16.00;;;7.53;;
16119;SDS011;12670;53.502;10.252;2022-12-24T05:54:34;14.30;;;6.90;;
16119;SDS011;12670;53.502;10.252;2022-12-24T05:57:38;14.93;;;6.87;;
16119;SDS011;12670;53.502;10.252;2022-12-24T06:00:41;14.33;;;6.60;;
16119;SDS011;12670;53.502;10.252;2022-12-24T06:03:44;13.07;;;6.50;;
16119;SDS011;12670;53.502;10.252;2022-12-24T06:06:48;11.20;;;6.20;;
16119;SDS011;12670;53.502;10.252;2022-12-24T06:09:50;10.17;;;5.70;;
16119;SDS011;12670;53.502;10.252;2022-12-24T06:12:54;15.20;;;6.87;;
16119;SDS011;12670;53.502;10.252;2022-12-24T06:15:57;14.80;;;6.13;;
16119;SDS011;12670;53.502;10.252;2022-12-24T06:19:01;10.27;;;5.27;;
16119;SDS011;12670;53.502;10.252;2022-12-24T06:22:05;9.97;;;5.73;;
16119;SDS011;12670;53.502;10.252;2022-12-24T06:25:08;11.50;;;6.10;;
16119;SDS011;12670;53.502;10.252;2022-12-24T06:28:11;10.37;;;5.50;;
16119;SDS011;12670;53.502;10.252;2022-12-24T06:31:14;10.37;;;5.63;;
16119;SDS011;12670;53.502;10.252;2022-12-24T06:34:19;11.33;;;5.43;;
16119;SDS011;12670;53.502;10.252;2022-12-24T06:37:23;10.40;;;5.47;;
16119;SDS011;12670;53.502;10.252;2022-12-24T06:40:26;12.00;;;5.70;;
16119;SDS011;12670;53.502;10.252;2022-12-24T06:43:28;10.43;;;5.47;;
16119;SDS011;12670;53.502;10.252;2022-12-24T06:46:31;10.40;;;5.03;;
16119;SDS011;12670;53.502;10.252;2022-12-24T06:49:34;9.57;;;5.07;;
16119;SDS011;12670;53.502;10.252;2022-12-24T06:52:37;7.97;;;4.97;;
16119;SDS011;12670;53.502;10.252;2022-12-24T06:55:40;9.00;;;5.23;;
16119;SDS011;12670;53.502;10.252;2022-12-24T06:58:43;8.93;;;4.83;;
16119;SDS011;12670;53.502;10.252;2022-12-24T07:01:46;8.87;;;4.60;;
16119;SDS011;12670;53.502;10.252;2022-12-24T07:04:49;8.37;;;5.33;;
16119;SDS011;12670;53.502;10.252;2022-12-24T07:07:53;8.47;;;4.40;;
16119;SDS011;12670;53.502;10.252;2022-12-24T07:10:55;11.43;;;5.40;;
16119;SDS011;12670;53.502;10.252;2022-12-24T07:14:00;8.57;;;4.70;;
16119;SDS011;12670;53.502;10.252;2022-12-24T07:17:02;8.03;;;4.50;;
16119;SDS011;12670;53.502;10.252;2022-12-24T07:20:07;7.30;;;4.33;;
16119;SDS011;12670;53.502;10.252;2022-12-24T07:23:14;7.60;;;4.30;;
16119;SDS011;12670;53.502;10.252;2022-12-24T07:26:17;7.10;;;4.10;;
16119;SDS011;12670;53.502;10.252;2022-12-24T07:29:20;6.83;;;4.10;;
16119;SDS011;12670;53.502;10.252;2022-12-24T07:32:23;8.23;;;4.30;;
16119;SDS011;12670;53.502;10.252;2022-12-24T07:35:25;8.07;;;4.40;;
16119;SDS011;12670;53.502;10.252;2022-12-24T07:38:29;7.47;;;4.40;;
16119;SDS011;12670;53.502;10.252;2022-12-24T07:41:33;7.93;;;4.40;;
16119;SDS011;12670;53.502;10.252;2022-12-24T07:44:41;6.53;;;3.73;;
16119;SDS011;12670;53.502;10.252;2022-12-24T07:47:44;7.27;;;4.17;;
16119;SDS011;12670;53.502;10.252;2022-12-24T07:50:47;6.40;;;3.83;;
16119;SDS011;12670;53.502;10.252;2022-12-24T07:53:51;5.13;;;3.73;;
16119;SDS011;12670;53.502;10.252;2022-12-24T07:56:55;6.43;;;3.93;;
16119;SDS011;12670;53.502;10.252;2022-12-24T07:59:57;7.30;;;4.40;;
16119;SDS011;12670;53.502;10.252;2022-12-24T08:03:00;8.27;;;4.10;;
16119;SDS011;12670;53.502;10.252;2022-12-24T08:06:03;6.13;;;3.93;;
16119;SDS011;12670;53.502;10.252;2022-12-24T08:09:07;7.87;;;4.10;;
16119;SDS011;12670;53.502;10.252;2022-12-24T08:12:10;7.73;;;4.30;;
16119;SDS011;12670;53.502;10.252;2022-12-24T08:15:13;5.37;;;3.83;;
16119;SDS011;12670;53.502;10.252;2022-12-24T08:18:15;6.30;;;3.93;;
16119;SDS011;12670;53.502;10.252;2022-12-24T08:21:18;5.93;;;3.73;;
16119;SDS011;12670;53.502;10.252;2022-12-24T08:24:22;5.97;;;3.73;;
16119;SDS011;12670;53.502;10.252;2022-12-24T08:27:24;7.07;;;3.90;;
16119;SDS011;12670;53.502;10.252;2022-12-24T08:30:27;8.60;;;3.93;;
16119;SDS011;12670;53.502;10.252;2022-12-24T08:33:30;6.40;;;4.03;;
16119;SDS011;12670;53.502;10.252;2022-12-24T08:36:33;6.83;;;3.87;;
16119;SDS011;12670;53.502;10.252;2022-12-24T08:39:37;6.77;;;3.80;;
16119;SDS011;12670;53.502;10.252;2022-12-24T08:42:40;6.57;;;4.23;;
16119;SDS011;12670;53.502;10.252;2022-12-24T08:45:43;8.67;;;4.40;;
16119;SDS011;12670;53.502;10.252;2022-12-24T08:48:46;6.67;;;4.20;;
16119;SDS011;12670;53.502;10.252;2022-12-24T08:51:49;5.77;;;4.00;;
16119;SDS011;12670;53.502;10.252;2022-12-24T08:54:54;6.40;;;4.00;;
16119;SDS011;12670;53.502;10.252;2022-12-24T08:57:56;5.77;;;3.90;;
16119;SDS011;12670;53.502;10.252;2022-12-24T09:00:59;5.53;;;3.43;;
16119;SDS011;12670;53.502;10.252;2022-12-24T09:04:02;6.43;;;3.57;;
16119;SDS011;12670;53.502;10.252;2022-12-24T09:07:05;5.70;;;3.63;;
16119;SDS011;12670;53.502;10.252;2022-12-24T09:10:10;6.00;;;3.77;;
16119;SDS011;12670;53.502;10.252;2022-12-24T09:13:13;6.03;;;3.47;;
16119;SDS011;12670;53.502;10.252;2022-12-24T09:16:15;6.00;;;3.53;;
16119;SDS011;12670;53.502;10.252;2022-12-24T09:19:18;5.17;;;3.33;;
16119;SDS011;12670;53.502;10.252;2022-12-24T09:22:21;5.07;;;3.50;;
16119;SDS011;12670;53.502;10.252;2022-12-24T09:25:25;5.90;;;3.83;;
16119;SDS011;12670;53.502;10.252;2022-12-24T09:28:27;5.57;;;3.73;;
16119;SDS011;12670;53.502;10.252;2022-12-24T09:31:30;6.87;;;3.63;;
16119;SDS011;12670;53.502;10.252;2022-12-24T09:34:33;5.83;;;3.70;;
16119;SDS011;12670;53.502;10.252;2022-12-24T09:37:36;5.63;;;3.83;;
16119;SDS011;12670;53.502;10.252;2022-12-24T09:40:40;6.13;;;3.70;;
16119;SDS011;12670;53.502;10.252;2022-12-24T09:43:44;5.90;;;3.80;;
16119;SDS011;12670;53.502;10.252;2022-12-24T09:46:51;6.47;;;4.43;;
16119;SDS011;12670;53.502;10.252;2022-12-24T09:49:55;6.10;;;3.87;;
16119;SDS011;12670;53.502;10.252;2022-12-24T09:53:03;7.43;;;4.53;;
16119;SDS011;12670;53.502;10.252;2022-12-24T09:56:19;6.97;;;4.60;;
16119;SDS011;12670;53.502;10.252;2022-12-24T09:59:25;7.00;;;4.50;;
16119;SDS011;12670;53.502;10.252;2022-12-24T10:02:36;7.30;;;4.87;;
16119;SDS011;12670;53.502;10.252;2022-12-24T10:05:40;7.07;;;4.50;;
16119;SDS011;12670;53.502;10.252;2022-12-24T10:08:55;7.90;;;4.90;;
16119;SDS011;12670;53.502;10.252;2022-12-24T10:12:06;7.87;;;5.17;;
16119;SDS011;12670;53.502;10.252;2022-12-24T10:15:14;8.60;;;5.07;;
16119;SDS011;12670;53.502;10.252;2022-12-24T10:18:29;9.87;;;6.20;;
16119;SDS011;12670;53.502;10.252;2022-12-24T10:21:58;10.73;;;5.53;;
16119;SDS011;12670;53.502;10.252;2022-12-24T10:25:12;9.73;;;5.97;;
16119;SDS011;12670;53.502;10.252;2022-12-24T10:28:22;10.50;;;5.83;;
16119;SDS011;12670;53.502;10.252;2022-12-24T10:31:38;10.57;;;5.93;;
16119;SDS011;12670;53.502;10.252;2022-12-24T10:34:43;8.50;;;5.93;;
16119;SDS011;12670;53.502;10.252;2022-12-24T10:37:47;8.97;;;6.20;;
16119;SDS011;12670;53.502;10.252;2022-12-24T10:40:51;12.07;;;6.40;;
16119;SDS011;12670;53.502;10.252;2022-12-24T10:43:58;14.87;;;8.87;;
16119;SDS011;12670;53.502;10.252;2022-12-24T10:47:01;57.37;;;29.97;;
16119;SDS011;12670;53.502;10.252;2022-12-24T10:50:09;17.07;;;9.30;;
16119;SDS011;12670;53.502;10.252;2022-12-24T10:53:19;14.33;;;8.10;;
16119;SDS011;12670;53.502;10.252;2022-12-24T10:56:26;18.27;;;10.57;;
16119;SDS011;12670;53.502;10.252;2022-12-24T10:59:33;13.97;;;7.47;;
16119;SDS011;12670;53.502;10.252;2022-12-24T11:02:42;11.27;;;6.30;;
16119;SDS011;12670;53.502;10.252;2022-12-24T11:05:45;10.87;;;6.40;;
16119;SDS011;12670;53.502;10.252;2022-12-24T11:09:11;8.90;;;5.60;;
16119;SDS011;12670;53.502;10.252;2022-12-24T11:12:21;8.93;;;5.67;;
16119;SDS011;12670;53.502;10.252;2022-12-24T11:15:29;8.00;;;5.57;;
16119;SDS011;12670;53.502;10.252;2022-12-24T11:18:35;12.40;;;5.33;;
16119;SDS011;12670;53.502;10.252;2022-12-24T11:21:45;8.87;;;5.37;;
16119;SDS011;12670;53.502;10.252;2022-12-24T11:24:53;8.33;;;5.40;;
16119;SDS011;12670;53.502;10.252;2022-12-24T11:28:09;15.60;;;7.10;;
16119;SDS011;12670;53.502;10.252;2022-12-24T11:31:18;7.33;;;5.10;;
16119;SDS011;12670;53.502;10.252;2022-12-24T11:34:23;9.27;;;6.57;;
16119;SDS011;12670;53.502;10.252;2022-12-24T11:37:28;11.63;;;6.13;;
16119;SDS011;12670;53.502;10.252;2022-12-24T11:40:32;8.60;;;5.60;;
16119;SDS011;12670;53.502;10.252;2022-12-24T11:43:39;12.97;;;6.10;;
16119;SDS011;12670;53.502;10.252;2022-12-24T11:46:47;13.13;;;6.33;;
16119;SDS011;12670;53.502;10.252;2022-12-24T11:49:53;12.47;;;7.20;;
16119;SDS011;12670;53.502;10.252;2022-12-24T11:53:16;10.00;;;6.60;;
16119;SDS011;12670;53.502;10.252;2022-12-24T11:56:27;10.07;;;6.80;;
16119;SDS011;12670;53.502;10.252;2022-12-24T11:59:37;10.93;;;6.47;;
16119;SDS011;12670;53.502;10.252;2022-12-24T12:02:46;11.27;;;6.80;;
16119;SDS011;12670;53.502;10.252;2022-12-24T12:05:52;11.53;;;6.27;;
16119;SDS011;12670;53.502;10.252;2022-12-24T12:08:58;17.90;;;7.43;;
16119;SDS011;12670;53.502;10.252;2022-12-24T12:12:04;14.13;;;7.90;;
16119;SDS011;12670;53.502;10.252;2022-12-24T12:15:11;14.63;;;7.23;;
16119;SDS011;12670;53.502;10.252;2022-12-24T12:18:19;13.43;;;7.30;;
16119;SDS011;12670;53.502;10.252;2022-12-24T12:21:26;13.13;;;6.77;;
16119;SDS011;12670;53.502;10.252;2022-12-24T12:24:35;12.87;;;6.97;;
16119;SDS011;12670;53.502;10.252;2022-12-24T12:27:42;11.27;;;6.30;;
16119;SDS011;12670;53.502;10.252;2022-12-24T12:30:46;13.53;;;7.00;;
16119;SDS011;12670;53.502;10.252;2022-12-24T12:33:58;16.57;;;6.90;;
16119;SDS011;12670;53.502;10.252;2022-12-24T12:37:07;18.57;;;7.17;;
16119;SDS011;12670;53.502;10.252;2022-12-24T12:40:16;19.13;;;7.03;;
16119;SDS011;12670;53.502;10.252;2022-12-24T12:43:24;13.43;;;6.97;;
16119;SDS011;12670;53.502;10.252;2022-12-24T12:46:40;15.07;;;7.73;;
16119;SDS011;12670;53.502;10.252;2022-12-24T12:50:02;15.63;;;7.70;;
16119;SDS011;12670;53.502;10.252;2022-12-24T12:53:16;19.87;;;8.37;;
16119;SDS011;12670;53.502;10.252;2022-12-24T12:56:37;15.90;;;7.90;;
16119;SDS011;12670;53.502;10.252;2022-12-24T12:59:47;17.47;;;8.27;;
16119;SDS011;12670;53.502;10.252;2022-12-24T13:03:14;29.23;;;9.53;;
16119;SDS011;12670;53.502;10.252;2022-12-24T13:06:51;17.53;;;8.87;;
16119;SDS011;12670;53.502;10.252;2022-12-24T13:10:23;21.10;;;8.43;;
16119;SDS011;12670;53.502;10.252;2022-12-24T13:13:42;21.13;;;10.13;;
16119;SDS011;12670;53.502;10.252;2022-12-24T13:16:58;21.40;;;9.13;;
16119;SDS011;12670;53.502;10.252;2022-12-24T13:20:17;23.07;;;9.83;;
16119;SDS011;12670;53.502;10.252;2022-12-24T13:23:25;23.83;;;9.70;;
16119;SDS011;12670;53.502;10.252;2022-12-24T13:26:29;16.60;;;8.33;;
16119;SDS011;12670;53.502;10.252;2022-12-24T13:32:53;18.53;;;9.00;;
16119;SDS011;12670;53.502;10.252;2022-12-24T13:35:57;19.70;;;10.23;;
16119;SDS011;12670;53.502;10.252;2022-12-24T13:39:02;25.00;;;13.37;;
16119;SDS011;12670;53.502;10.252;2022-12-24T13:42:05;28.10;;;14.20;;
16119;SDS011;12670;53.502;10.252;2022-12-24T13:48:44;25.30;;;9.77;;
16119;SDS011;12670;53.502;10.252;2022-12-24T13:51:47;24.97;;;10.40;;
16119;SDS011;12670;53.502;10.252;2022-12-24T13:55:03;18.63;;;9.37;;
16119;SDS011;12670;53.502;10.252;2022-12-24T13:58:13;19.97;;;8.90;;
16119;SDS011;12670;53.502;10.252;2022-12-24T14:01:20;21.27;;;10.30;;
16119;SDS011;12670;53.502;10.252;2022-12-24T14:04:34;20.47;;;9.07;;
16119;SDS011;12670;53.502;10.252;2022-12-24T14:07:43;20.40;;;9.07;;
16119;SDS011;12670;53.502;10.252;2022-12-24T14:10:57;18.90;;;9.80;;
16119;SDS011;12670;53.502;10.252;2022-12-24T14:14:08;22.10;;;10.40;;
16119;SDS011;12670;53.502;10.252;2022-12-24T14:17:13;18.07;;;9.43;;
16119;SDS011;12670;53.502;10.252;2022-12-24T14:20:23;24.57;;;9.93;;
16119;SDS011;12670;53.502;10.252;2022-12-24T14:23:29;19.17;;;9.57;;
16119;SDS011;12670;53.502;10.252;2022-12-24T14:26:42;16.37;;;8.50;;
16119;SDS011;12670;53.502;10.252;2022-12-24T14:29:49;17.63;;;8.83;;
16119;SDS011;12670;53.502;10.252;2022-12-24T14:32:54;16.67;;;8.77;;
16119;SDS011;12670;53.502;10.252;2022-12-24T14:35:58;15.93;;;8.70;;
16119;SDS011;12670;53.502;10.252;2022-12-24T14:39:04;18.53;;;8.70;;
16119;SDS011;12670;53.502;10.252;2022-12-24T14:42:15;17.63;;;9.00;;
16119;SDS011;12670;53.502;10.252;2022-12-24T14:45:28;17.20;;;9.33;;
16119;SDS011;12670;53.502;10.252;2022-12-24T14:48:36;20.13;;;9.40;;
16119;SDS011;12670;53.502;10.252;2022-12-24T14:51:46;21.77;;;9.77;;
16119;SDS011;12670;53.502;10.252;2022-12-24T14:54:54;20.93;;;9.37;;
16119;SDS011;12670;53.502;10.252;2022-12-24T14:58:15;18.60;;;8.90;;
16119;SDS011;12670;53.502;10.252;2022-12-24T15:01:21;21.77;;;9.33;;
16119;SDS011;12670;53.502;10.252;2022-12-24T15:04:26;25.63;;;10.50;;
16119;SDS011;12670;53.502;10.252;2022-12-24T15:07:29;30.67;;;15.07;;
16119;SDS011;12670;53.502;10.252;2022-12-24T15:10:33;37.50;;;15.50;;
16119;SDS011;12670;53.502;10.252;2022-12-24T15:13:40;33.57;;;15.60;;
16119;SDS011;12670;53.502;10.252;2022-12-24T15:16:47;30.77;;;15.37;;
16119;SDS011;12670;53.502;10.252;2022-12-24T15:19:55;31.73;;;13.33;;
16119;SDS011;12670;53.502;10.252;2022-12-24T15:22:59;33.30;;;10.30;;
16119;SDS011;12670;53.502;10.252;2022-12-24T15:26:06;26.83;;;12.23;;
16119;SDS011;12670;53.502;10.252;2022-12-24T15:29:20;23.03;;;12.30;;
16119;SDS011;12670;53.502;10.252;2022-12-24T15:32:24;21.90;;;11.00;;
16119;SDS011;12670;53.502;10.252;2022-12-24T15:35:28;19.33;;;10.40;;
16119;SDS011;12670;53.502;10.252;2022-12-24T15:38:35;22.70;;;12.20;;
16119;SDS011;12670;53.502;10.252;2022-12-24T15:41:41;44.60;;;24.70;;
16119;SDS011;12670;53.502;10.252;2022-12-24T15:45:01;33.60;;;16.10;;
16119;SDS011;12670;53.502;10.252;2022-12-24T15:48:07;37.43;;;17.10;;
16119;SDS011;12670;53.502;10.252;2022-12-24T15:51:12;41.27;;;17.63;;
16119;SDS011;12670;53.502;10.252;2022-12-24T15:54:16;35.47;;;14.77;;
16119;SDS011;12670;53.502;10.252;2022-12-24T15:57:23;28.60;;;13.37;;
16119;SDS011;12670;53.502;10.252;2022-12-24T16:00:29;39.33;;;10.17;;
16119;SDS011;12670;53.502;10.252;2022-12-24T16:03:33;30.30;;;11.03;;
16119;SDS011;12670;53.502;10.252;2022-12-24T16:06:49;26.13;;;9.80;;
16119;SDS011;12670;53.502;10.252;2022-12-24T16:09:54;32.03;;;10.23;;
16119;SDS011;12670;53.502;10.252;2022-12-24T16:13:15;39.07;;;11.37;;
16119;SDS011;12670;53.502;10.252;2022-12-24T16:16:29;32.97;;;10.10;;
16119;SDS011;12670;53.502;10.252;2022-12-24T16:19:34;34.13;;;10.73;;
16119;SDS011;12670;53.502;10.252;2022-12-24T16:22:41;34.57;;;10.60;;
16119;SDS011;12670;53.502;10.252;2022-12-24T16:25:47;31.60;;;9.63;;
16119;SDS011;12670;53.502;10.252;2022-12-24T16:28:50;27.17;;;9.07;;
16119;SDS011;12670;53.502;10.252;2022-12-24T16:31:54;35.90;;;10.63;;
16119;SDS011;12670;53.502;10.252;2022-12-24T16:34:58;29.27;;;9.03;;
16119;SDS011;12670;53.502;10.252;2022-12-24T16:38:03;35.77;;;9.67;;
16119;SDS011;12670;53.502;10.252;2022-12-24T16:41:06;30.17;;;10.43;;
16119;SDS011;12670;53.502;10.252;2022-12-24T16:44:08;36.20;;;13.33;;
16119;SDS011;12670;53.502;10.252;2022-12-24T16:47:12;27.63;;;10.00;;
16119;SDS011;12670;53.502;10.252;2022-12-24T16:50:18;25.03;;;9.17;;
16119;SDS011;12670;53.502;10.252;2022-12-24T16:53:21;30.70;;;9.40;;
16119;SDS011;12670;53.502;10.252;2022-12-24T16:56:24;25.17;;;9.50;;
16119;SDS011;12670;53.502;10.252;2022-12-24T16:59:26;30.90;;;10.40;;
16119;SDS011;12670;53.502;10.252;2022-12-24T17:02:30;35.00;;;10.70;;
16119;SDS011;12670;53.502;10.252;2022-12-24T17:05:36;36.50;;;11.07;;
16119;SDS011;12670;53.502;10.252;2022-12-24T17:08:39;29.33;;;10.23;;
16119;SDS011;12670;53.502;10.252;2022-12-24T17:11:41;30.53;;;10.60;;
16119;SDS011;12670;53.502;10.252;2022-12-24T17:14:44;35.87;;;11.80;;
16119;SDS011;12670;53.502;10.252;2022-12-24T17:17:48;35.90;;;12.23;;
16119;SDS011;12670;53.502;10.252;2022-12-24T17:20:57;39.23;;;13.10;;
16119;SDS011;12670;53.502;10.252;2022-12-24T17:24:01;35.37;;;11.60;;
16119;SDS011;12670;53.502;10.252;2022-12-24T17:27:04;45.23;;;14.03;;
16119;SDS011;12670;53.502;10.252;2022-12-24T17:30:07;40.80;;;12.23;;
16119;SDS011;12670;53.502;10.252;2022-12-24T17:33:11;37.90;;;11.50;;
16119;SDS011;12670;53.502;10.252;2022-12-24T17:36:15;38.57;;;11.33;;
16119;SDS011;12670;53.502;10.252;2022-12-24T17:39:18;28.47;;;11.30;;
16119;SDS011;12670;53.502;10.252;2022-12-24T17:42:28;34.63;;;11.87;;
16119;SDS011;12670;53.502;10.252;2022-12-24T17:45:30;32.70;;;9.80;;
16119;SDS011;12670;53.502;10.252;2022-12-24T17:48:34;27.40;;;8.87;;
16119;SDS011;12670;53.502;10.252;2022-12-24T17:51:37;37.60;;;9.07;;
16119;SDS011;12670;53.502;10.252;2022-12-24T17:54:45;37.33;;;9.87;;
16119;SDS011;12670;53.502;10.252;2022-12-24T17:57:48;39.70;;;10.40;;
16119;SDS011;12670;53.502;10.252;2022-12-24T18:00:51;45.93;;;12.17;;
16119;SDS011;12670;53.502;10.252;2022-12-24T18:03:58;44.77;;;12.83;;
16119;SDS011;12670;53.502;10.252;2022-12-24T18:07:02;37.93;;;11.30;;
16119;SDS011;12670;53.502;10.252;2022-12-24T18:10:04;23.47;;;9.63;;
16119;SDS011;12670;53.502;10.252;2022-12-24T18:13:08;30.83;;;9.00;;
16119;SDS011;12670;53.502;10.252;2022-12-24T18:16:20;28.20;;;8.87;;
16119;SDS011;12670;53.502;10.252;2022-12-24T18:19:25;34.50;;;9.07;;
16119;SDS011;12670;53.502;10.252;2022-12-24T18:22:28;35.97;;;8.97;;